sensor_id;sensor_type;location;lat;lon;timestamp;P1;durP1;ratioP1;P2;durP2;ratioP2
33836;SDS011;20140;49.356;8.812;2023-07-29T00:00:45;4.33;;;3.43;;
33836;SDS011;20140;49.356;8.812;2023-07-29T00:03:11;6.17;;;3.47;;
33836;SDS011;20140;49.356;8.812;2023-07-29T00:05:36;3.30;;;3.00;;
33836;SDS011;20140;49.356;8.812;2023-07-29T00:08:02;4.53;;;3.58;;
33836;SDS011;20140;49.356;8.812;2023-07-29T00:10:28;7.47;;;3.83;;
33836;SDS011;20140;49.356;8.812;2023-07-29T00:12:56;3.92;;;3.28;;
33836;SDS011;20140;49.356;8.812;2023-07-29T00:15:21;4.53;;;4.13;;
33836;SDS011;20140;49.356;8.812;2023-07-29T00:17:47;4.40;;;4.00;;
33836;SDS011;20140;49.356;8.812;2023-07-29T00:20:12;4.70;;;3.80;;
33836;SDS011;20140;49.356;8.812;2023-07-29T00:22:38;6.20;;;3.30;;
33836;SDS011;20140;49.356;8.812;2023-07-29T00:25:03;5.07;;;3.28;;
33836;SDS011;20140;49.356;8.812;2023-07-29T00:27:29;4.13;;;3.40;;
33836;SDS011;20140;49.356;8.812;2023-07-29T00:29:54;6.17;;;3.70;;
33836;SDS011;20140;49.356;8.812;2023-07-29T00:32:20;4.10;;;3.70;;
33836;SDS011;20140;49.356;8.812;2023-07-29T00:34:46;5.17;;;3.73;;
33836;SDS011;20140;49.356;8.812;2023-07-29T00:37:11;4.80;;;4.07;;
33836;SDS011;20140;49.356;8.812;2023-07-29T00:39:37;5.17;;;3.73;;
33836;SDS011;20140;49.356;8.812;2023-07-29T00:42:03;7.07;;;4.43;;
33836;SDS011;20140;49.356;8.812;2023-07-29T00:44:29;7.27;;;4.17;;
33836;SDS011;20140;49.356;8.812;2023-07-29T00:46:56;5.53;;;3.38;;
33836;SDS011;20140;49.356;8.812;2023-07-29T00:49:22;8.57;;;4.55;;
33836;SDS011;20140;49.356;8.812;2023-07-29T00:51:48;6.43;;;4.65;;
33836;SDS011;20140;49.356;8.812;2023-07-29T00:54:14;5.30;;;4.00;;
33836;SDS011;20140;49.356;8.812;2023-07-29T00:56:40;6.30;;;3.85;;
33836;SDS011;20140;49.356;8.812;2023-07-29T00:59:05;6.30;;;3.60;;
33836;SDS011;20140;49.356;8.812;2023-07-29T01:01:32;6.15;;;3.30;;
33836;SDS011;20140;49.356;8.812;2023-07-29T01:03:58;10.70;;;4.07;;
33836;SDS011;20140;49.356;8.812;2023-07-29T01:06:29;4.97;;;4.23;;
33836;SDS011;20140;49.356;8.812;2023-07-29T01:09:19;5.07;;;3.75;;
33836;SDS011;20140;49.356;8.812;2023-07-29T01:14:47;4.07;;;3.72;;
33836;SDS011;20140;49.356;8.812;2023-07-29T01:17:22;4.07;;;3.10;;
33836;SDS011;20140;49.356;8.812;2023-07-29T01:22:19;3.80;;;3.28;;
33836;SDS011;20140;49.356;8.812;2023-07-29T01:24:46;3.97;;;3.60;;
33836;SDS011;20140;49.356;8.812;2023-07-29T01:27:11;5.07;;;3.57;;
33836;SDS011;20140;49.356;8.812;2023-07-29T01:29:37;4.63;;;4.03;;
33836;SDS011;20140;49.356;8.812;2023-07-29T01:32:14;5.43;;;3.83;;
33836;SDS011;20140;49.356;8.812;2023-07-29T01:37:13;6.00;;;4.25;;
33836;SDS011;20140;49.356;8.812;2023-07-29T01:39:47;3.70;;;3.30;;
33836;SDS011;20140;49.356;8.812;2023-07-29T01:42:17;7.97;;;4.10;;
33836;SDS011;20140;49.356;8.812;2023-07-29T01:44:43;7.55;;;4.10;;
33836;SDS011;20140;49.356;8.812;2023-07-29T01:47:08;6.03;;;3.47;;
33836;SDS011;20140;49.356;8.812;2023-07-29T01:49:35;6.93;;;4.40;;
33836;SDS011;20140;49.356;8.812;2023-07-29T01:52:01;5.70;;;4.43;;
33836;SDS011;20140;49.356;8.812;2023-07-29T01:54:26;6.50;;;4.10;;
33836;SDS011;20140;49.356;8.812;2023-07-29T01:56:52;5.23;;;3.87;;
33836;SDS011;20140;49.356;8.812;2023-07-29T01:59:17;8.63;;;5.00;;
33836;SDS011;20140;49.356;8.812;2023-07-29T02:01:43;9.07;;;4.50;;
33836;SDS011;20140;49.356;8.812;2023-07-29T02:04:08;6.83;;;4.53;;
33836;SDS011;20140;49.356;8.812;2023-07-29T02:06:34;6.73;;;4.60;;
33836;SDS011;20140;49.356;8.812;2023-07-29T02:08:59;6.53;;;5.20;;
33836;SDS011;20140;49.356;8.812;2023-07-29T02:11:25;5.80;;;4.30;;
33836;SDS011;20140;49.356;8.812;2023-07-29T02:16:55;6.73;;;4.63;;
33836;SDS011;20140;49.356;8.812;2023-07-29T02:19:20;11.53;;;5.30;;
33836;SDS011;20140;49.356;8.812;2023-07-29T02:21:46;7.63;;;5.40;;
33836;SDS011;20140;49.356;8.812;2023-07-29T02:24:11;5.75;;;4.63;;
33836;SDS011;20140;49.356;8.812;2023-07-29T02:26:37;7.70;;;4.67;;
33836;SDS011;20140;49.356;8.812;2023-07-29T02:29:02;5.93;;;4.32;;
33836;SDS011;20140;49.356;8.812;2023-07-29T02:31:28;6.13;;;4.70;;
33836;SDS011;20140;49.356;8.812;2023-07-29T02:33:53;5.10;;;3.67;;
33836;SDS011;20140;49.356;8.812;2023-07-29T02:36:19;4.63;;;4.07;;
33836;SDS011;20140;49.356;8.812;2023-07-29T02:38:44;4.97;;;4.40;;
33836;SDS011;20140;49.356;8.812;2023-07-29T02:41:10;5.70;;;4.60;;
33836;SDS011;20140;49.356;8.812;2023-07-29T02:43:37;7.80;;;4.47;;
33836;SDS011;20140;49.356;8.812;2023-07-29T02:46:04;31.10;;;7.03;;
33836;SDS011;20140;49.356;8.812;2023-07-29T02:48:30;6.53;;;4.53;;
33836;SDS011;20140;49.356;8.812;2023-07-29T02:50:55;6.28;;;5.28;;
33836;SDS011;20140;49.356;8.812;2023-07-29T02:53:21;5.80;;;4.97;;
33836;SDS011;20140;49.356;8.812;2023-07-29T02:55:47;7.63;;;4.88;;
33836;SDS011;20140;49.356;8.812;2023-07-29T02:58:13;7.57;;;4.82;;
33836;SDS011;20140;49.356;8.812;2023-07-29T03:00:39;5.43;;;4.57;;
33836;SDS011;20140;49.356;8.812;2023-07-29T03:03:06;6.55;;;4.47;;
33836;SDS011;20140;49.356;8.812;2023-07-29T03:05:33;8.60;;;5.20;;
33836;SDS011;20140;49.356;8.812;2023-07-29T03:07:58;5.95;;;5.03;;
33836;SDS011;20140;49.356;8.812;2023-07-29T03:10:24;6.25;;;5.10;;
33836;SDS011;20140;49.356;8.812;2023-07-29T03:12:50;4.82;;;3.30;;
33836;SDS011;20140;49.356;8.812;2023-07-29T03:15:16;5.93;;;4.43;;
33836;SDS011;20140;49.356;8.812;2023-07-29T03:17:41;6.63;;;4.47;;
33836;SDS011;20140;49.356;8.812;2023-07-29T03:20:07;5.93;;;3.58;;
33836;SDS011;20140;49.356;8.812;2023-07-29T03:22:33;4.60;;;3.28;;
33836;SDS011;20140;49.356;8.812;2023-07-29T03:24:58;4.77;;;3.30;;
33836;SDS011;20140;49.356;8.812;2023-07-29T03:27:24;5.97;;;4.27;;
33836;SDS011;20140;49.356;8.812;2023-07-29T03:29:49;6.13;;;3.00;;
33836;SDS011;20140;49.356;8.812;2023-07-29T03:32:15;3.50;;;2.58;;
33836;SDS011;20140;49.356;8.812;2023-07-29T03:34:40;3.70;;;2.43;;
33836;SDS011;20140;49.356;8.812;2023-07-29T03:37:06;4.40;;;2.85;;
33836;SDS011;20140;49.356;8.812;2023-07-29T03:39:32;4.70;;;2.60;;
33836;SDS011;20140;49.356;8.812;2023-07-29T03:41:57;3.00;;;2.65;;
33836;SDS011;20140;49.356;8.812;2023-07-29T03:44:23;2.80;;;2.10;;
33836;SDS011;20140;49.356;8.812;2023-07-29T03:46:48;5.30;;;2.70;;
33836;SDS011;20140;49.356;8.812;2023-07-29T03:49:14;4.15;;;2.78;;
33836;SDS011;20140;49.356;8.812;2023-07-29T03:51:40;4.57;;;2.93;;
33836;SDS011;20140;49.356;8.812;2023-07-29T03:54:05;3.00;;;2.70;;
33836;SDS011;20140;49.356;8.812;2023-07-29T03:56:31;3.25;;;2.95;;
33836;SDS011;20140;49.356;8.812;2023-07-29T03:59:03;3.00;;;2.70;;
33836;SDS011;20140;49.356;8.812;2023-07-29T04:01:29;7.30;;;3.35;;
33836;SDS011;20140;49.356;8.812;2023-07-29T04:03:55;3.13;;;2.83;;
33836;SDS011;20140;49.356;8.812;2023-07-29T04:06:21;3.33;;;2.90;;
33836;SDS011;20140;49.356;8.812;2023-07-29T04:08:47;3.13;;;2.53;;
33836;SDS011;20140;49.356;8.812;2023-07-29T04:11:13;2.75;;;2.20;;
33836;SDS011;20140;49.356;8.812;2023-07-29T04:13:39;4.10;;;2.47;;
33836;SDS011;20140;49.356;8.812;2023-07-29T04:16:04;3.80;;;2.90;;
33836;SDS011;20140;49.356;8.812;2023-07-29T04:18:30;2.50;;;2.30;;
33836;SDS011;20140;49.356;8.812;2023-07-29T04:20:56;6.00;;;2.80;;
33836;SDS011;20140;49.356;8.812;2023-07-29T04:23:21;3.03;;;2.23;;
33836;SDS011;20140;49.356;8.812;2023-07-29T04:25:47;2.90;;;2.70;;
33836;SDS011;20140;49.356;8.812;2023-07-29T04:28:13;3.47;;;2.33;;
33836;SDS011;20140;49.356;8.812;2023-07-29T04:30:38;3.80;;;2.70;;
33836;SDS011;20140;49.356;8.812;2023-07-29T04:33:04;3.60;;;2.80;;
33836;SDS011;20140;49.356;8.812;2023-07-29T04:35:29;5.57;;;2.90;;
33836;SDS011;20140;49.356;8.812;2023-07-29T04:37:55;3.43;;;2.83;;
33836;SDS011;20140;49.356;8.812;2023-07-29T04:40:20;5.95;;;3.28;;
33836;SDS011;20140;49.356;8.812;2023-07-29T04:42:47;5.65;;;3.25;;
33836;SDS011;20140;49.356;8.812;2023-07-29T04:45:13;3.60;;;2.90;;
33836;SDS011;20140;49.356;8.812;2023-07-29T04:47:39;4.60;;;3.13;;
33836;SDS011;20140;49.356;8.812;2023-07-29T04:50:04;6.53;;;3.60;;
33836;SDS011;20140;49.356;8.812;2023-07-29T04:52:31;3.72;;;3.40;;
33836;SDS011;20140;49.356;8.812;2023-07-29T04:54:56;7.30;;;4.47;;
33836;SDS011;20140;49.356;8.812;2023-07-29T04:57:22;6.83;;;5.10;;
33836;SDS011;20140;49.356;8.812;2023-07-29T04:59:47;6.13;;;4.35;;
33836;SDS011;20140;49.356;8.812;2023-07-29T05:02:13;5.43;;;4.70;;
33836;SDS011;20140;49.356;8.812;2023-07-29T05:04:38;5.03;;;3.80;;
33836;SDS011;20140;49.356;8.812;2023-07-29T05:07:04;7.17;;;4.20;;
33836;SDS011;20140;49.356;8.812;2023-07-29T05:09:30;5.10;;;3.60;;
33836;SDS011;20140;49.356;8.812;2023-07-29T05:11:55;4.33;;;3.93;;
33836;SDS011;20140;49.356;8.812;2023-07-29T05:14:21;4.47;;;3.33;;
33836;SDS011;20140;49.356;8.812;2023-07-29T05:16:46;4.37;;;3.10;;
33836;SDS011;20140;49.356;8.812;2023-07-29T05:19:12;7.22;;;2.67;;
33836;SDS011;20140;49.356;8.812;2023-07-29T05:21:38;4.10;;;2.90;;
33836;SDS011;20140;49.356;8.812;2023-07-29T05:24:04;3.78;;;2.30;;
33836;SDS011;20140;49.356;8.812;2023-07-29T05:26:29;2.97;;;2.00;;
33836;SDS011;20140;49.356;8.812;2023-07-29T05:28:55;4.83;;;2.50;;
33836;SDS011;20140;49.356;8.812;2023-07-29T05:31:21;2.63;;;2.15;;
33836;SDS011;20140;49.356;8.812;2023-07-29T05:33:47;2.15;;;1.67;;
33836;SDS011;20140;49.356;8.812;2023-07-29T05:36:13;4.50;;;2.27;;
33836;SDS011;20140;49.356;8.812;2023-07-29T05:38:38;2.90;;;2.40;;
33836;SDS011;20140;49.356;8.812;2023-07-29T05:41:04;4.93;;;2.00;;
33836;SDS011;20140;49.356;8.812;2023-07-29T05:43:29;5.60;;;2.70;;
33836;SDS011;20140;49.356;8.812;2023-07-29T05:45:55;2.43;;;2.07;;
33836;SDS011;20140;49.356;8.812;2023-07-29T05:48:20;3.10;;;2.30;;
33836;SDS011;20140;49.356;8.812;2023-07-29T05:50:46;4.03;;;2.28;;
33836;SDS011;20140;49.356;8.812;2023-07-29T05:53:11;5.07;;;2.93;;
33836;SDS011;20140;49.356;8.812;2023-07-29T05:55:37;3.20;;;2.42;;
33836;SDS011;20140;49.356;8.812;2023-07-29T05:58:02;9.57;;;2.73;;
33836;SDS011;20140;49.356;8.812;2023-07-29T06:00:28;7.93;;;2.60;;
33836;SDS011;20140;49.356;8.812;2023-07-29T06:02:53;4.80;;;2.27;;
33836;SDS011;20140;49.356;8.812;2023-07-29T06:05:19;3.30;;;2.47;;
33836;SDS011;20140;49.356;8.812;2023-07-29T06:07:44;3.85;;;2.10;;
33836;SDS011;20140;49.356;8.812;2023-07-29T06:10:13;4.83;;;2.30;;
33836;SDS011;20140;49.356;8.812;2023-07-29T06:12:44;1.77;;;1.60;;
33836;SDS011;20140;49.356;8.812;2023-07-29T06:15:10;3.70;;;1.60;;
33836;SDS011;20140;49.356;8.812;2023-07-29T06:17:37;2.60;;;1.90;;
33836;SDS011;20140;49.356;8.812;2023-07-29T06:20:03;2.45;;;1.70;;
33836;SDS011;20140;49.356;8.812;2023-07-29T06:22:29;2.50;;;1.70;;
33836;SDS011;20140;49.356;8.812;2023-07-29T06:24:54;2.83;;;2.03;;
33836;SDS011;20140;49.356;8.812;2023-07-29T06:27:20;3.50;;;2.07;;
33836;SDS011;20140;49.356;8.812;2023-07-29T06:29:45;3.10;;;1.70;;
33836;SDS011;20140;49.356;8.812;2023-07-29T06:32:11;3.03;;;1.70;;
33836;SDS011;20140;49.356;8.812;2023-07-29T06:34:36;2.00;;;1.80;;
33836;SDS011;20140;49.356;8.812;2023-07-29T06:37:02;4.10;;;1.53;;
33836;SDS011;20140;49.356;8.812;2023-07-29T06:39:27;2.00;;;1.53;;
33836;SDS011;20140;49.356;8.812;2023-07-29T06:41:53;3.17;;;2.03;;
33836;SDS011;20140;49.356;8.812;2023-07-29T06:44:18;1.77;;;1.42;;
33836;SDS011;20140;49.356;8.812;2023-07-29T06:46:44;2.90;;;2.00;;
33836;SDS011;20140;49.356;8.812;2023-07-29T06:49:10;5.35;;;2.25;;
33836;SDS011;20140;49.356;8.812;2023-07-29T06:51:35;3.37;;;2.00;;
33836;SDS011;20140;49.356;8.812;2023-07-29T06:54:01;4.13;;;2.28;;
33836;SDS011;20140;49.356;8.812;2023-07-29T06:56:27;2.73;;;1.90;;
33836;SDS011;20140;49.356;8.812;2023-07-29T06:58:53;2.60;;;2.03;;
33836;SDS011;20140;49.356;8.812;2023-07-29T07:01:18;3.07;;;1.77;;
33836;SDS011;20140;49.356;8.812;2023-07-29T07:03:44;2.23;;;1.73;;
33836;SDS011;20140;49.356;8.812;2023-07-29T07:06:10;2.30;;;1.80;;
33836;SDS011;20140;49.356;8.812;2023-07-29T07:08:35;2.70;;;1.63;;
33836;SDS011;20140;49.356;8.812;2023-07-29T07:11:01;2.13;;;2.00;;
33836;SDS011;20140;49.356;8.812;2023-07-29T07:13:26;4.40;;;2.60;;
33836;SDS011;20140;49.356;8.812;2023-07-29T07:15:55;2.70;;;2.20;;
33836;SDS011;20140;49.356;8.812;2023-07-29T07:18:21;3.00;;;2.70;;
33836;SDS011;20140;49.356;8.812;2023-07-29T07:20:49;2.80;;;1.98;;
33836;SDS011;20140;49.356;8.812;2023-07-29T07:23:16;2.22;;;2.03;;
33836;SDS011;20140;49.356;8.812;2023-07-29T07:25:42;2.90;;;2.60;;
33836;SDS011;20140;49.356;8.812;2023-07-29T07:28:08;2.67;;;2.30;;
33836;SDS011;20140;49.356;8.812;2023-07-29T07:30:34;2.97;;;2.05;;
33836;SDS011;20140;49.356;8.812;2023-07-29T07:33:00;4.10;;;2.23;;
33836;SDS011;20140;49.356;8.812;2023-07-29T07:35:26;3.97;;;2.30;;
33836;SDS011;20140;49.356;8.812;2023-07-29T07:37:52;3.03;;;2.72;;
33836;SDS011;20140;49.356;8.812;2023-07-29T07:40:17;2.88;;;2.60;;
33836;SDS011;20140;49.356;8.812;2023-07-29T07:42:43;3.30;;;2.40;;
33836;SDS011;20140;49.356;8.812;2023-07-29T07:45:08;3.85;;;2.80;;
33836;SDS011;20140;49.356;8.812;2023-07-29T07:47:34;3.13;;;2.60;;
33836;SDS011;20140;49.356;8.812;2023-07-29T07:49:59;4.15;;;3.45;;
33836;SDS011;20140;49.356;8.812;2023-07-29T07:52:25;3.47;;;2.97;;
33836;SDS011;20140;49.356;8.812;2023-07-29T07:54:53;3.60;;;2.77;;
33836;SDS011;20140;49.356;8.812;2023-07-29T07:57:20;4.00;;;2.63;;
33836;SDS011;20140;49.356;8.812;2023-07-29T07:59:46;4.00;;;2.50;;
33836;SDS011;20140;49.356;8.812;2023-07-29T08:02:12;3.10;;;2.80;;
33836;SDS011;20140;49.356;8.812;2023-07-29T08:04:38;2.75;;;2.33;;
33836;SDS011;20140;49.356;8.812;2023-07-29T08:07:03;3.57;;;2.60;;
33836;SDS011;20140;49.356;8.812;2023-07-29T08:09:29;2.67;;;2.33;;
33836;SDS011;20140;49.356;8.812;2023-07-29T08:11:55;4.43;;;2.50;;
33836;SDS011;20140;49.356;8.812;2023-07-29T08:14:20;3.83;;;2.80;;
33836;SDS011;20140;49.356;8.812;2023-07-29T08:16:46;2.75;;;2.55;;
33836;SDS011;20140;49.356;8.812;2023-07-29T08:19:11;4.80;;;2.77;;
33836;SDS011;20140;49.356;8.812;2023-07-29T08:21:37;2.75;;;2.13;;
33836;SDS011;20140;49.356;8.812;2023-07-29T08:24:02;3.70;;;3.00;;
33836;SDS011;20140;49.356;8.812;2023-07-29T08:26:28;3.22;;;2.15;;
33836;SDS011;20140;49.356;8.812;2023-07-29T08:28:54;3.08;;;2.17;;
33836;SDS011;20140;49.356;8.812;2023-07-29T08:31:19;6.30;;;2.10;;
33836;SDS011;20140;49.356;8.812;2023-07-29T08:33:45;2.80;;;2.10;;
33836;SDS011;20140;49.356;8.812;2023-07-29T08:36:10;2.00;;;1.80;;
33836;SDS011;20140;49.356;8.812;2023-07-29T08:38:36;2.33;;;1.98;;
33836;SDS011;20140;49.356;8.812;2023-07-29T08:41:09;4.13;;;2.17;;
33836;SDS011;20140;49.356;8.812;2023-07-29T08:43:43;2.93;;;2.30;;
33836;SDS011;20140;49.356;8.812;2023-07-29T08:46:18;3.00;;;2.15;;
33836;SDS011;20140;49.356;8.812;2023-07-29T08:48:44;3.53;;;2.83;;
33836;SDS011;20140;49.356;8.812;2023-07-29T08:51:11;3.17;;;1.63;;
33836;SDS011;20140;49.356;8.812;2023-07-29T08:53:37;4.20;;;1.90;;
33836;SDS011;20140;49.356;8.812;2023-07-29T08:56:04;2.60;;;1.70;;
33836;SDS011;20140;49.356;8.812;2023-07-29T08:58:30;2.40;;;1.70;;
33836;SDS011;20140;49.356;8.812;2023-07-29T09:00:56;3.00;;;1.70;;
33836;SDS011;20140;49.356;8.812;2023-07-29T09:03:22;2.83;;;1.57;;
33836;SDS011;20140;49.356;8.812;2023-07-29T09:05:47;4.40;;;1.70;;
33836;SDS011;20140;49.356;8.812;2023-07-29T09:08:14;2.40;;;1.90;;
33836;SDS011;20140;49.356;8.812;2023-07-29T09:10:39;1.98;;;1.88;;
33836;SDS011;20140;49.356;8.812;2023-07-29T09:13:06;3.07;;;2.27;;
33836;SDS011;20140;49.356;8.812;2023-07-29T09:15:32;2.60;;;1.80;;
33836;SDS011;20140;49.356;8.812;2023-07-29T09:18:08;2.00;;;1.70;;
33836;SDS011;20140;49.356;8.812;2023-07-29T09:20:35;2.53;;;2.17;;
33836;SDS011;20140;49.356;8.812;2023-07-29T09:23:01;2.30;;;2.10;;
33836;SDS011;20140;49.356;8.812;2023-07-29T09:25:27;2.17;;;1.90;;
33836;SDS011;20140;49.356;8.812;2023-07-29T09:27:59;2.83;;;2.10;;
33836;SDS011;20140;49.356;8.812;2023-07-29T09:30:26;3.60;;;1.42;;
33836;SDS011;20140;49.356;8.812;2023-07-29T09:32:54;2.58;;;1.70;;
33836;SDS011;20140;49.356;8.812;2023-07-29T09:35:21;1.63;;;1.52;;
33836;SDS011;20140;49.356;8.812;2023-07-29T09:37:46;1.67;;;1.52;;
33836;SDS011;20140;49.356;8.812;2023-07-29T09:40:13;2.65;;;1.83;;
33836;SDS011;20140;49.356;8.812;2023-07-29T09:42:40;1.75;;;1.25;;
33836;SDS011;20140;49.356;8.812;2023-07-29T09:45:18;4.27;;;1.37;;
33836;SDS011;20140;49.356;8.812;2023-07-29T09:47:48;3.72;;;1.70;;
33836;SDS011;20140;49.356;8.812;2023-07-29T09:50:14;5.18;;;1.80;;
33836;SDS011;20140;49.356;8.812;2023-07-29T09:52:41;2.50;;;1.92;;
33836;SDS011;20140;49.356;8.812;2023-07-29T09:55:07;2.13;;;1.52;;
33836;SDS011;20140;49.356;8.812;2023-07-29T09:57:33;3.92;;;1.60;;
33836;SDS011;20140;49.356;8.812;2023-07-29T09:59:59;1.48;;;1.38;;
33836;SDS011;20140;49.356;8.812;2023-07-29T10:02:24;1.67;;;1.57;;
33836;SDS011;20140;49.356;8.812;2023-07-29T10:04:53;2.15;;;1.73;;
33836;SDS011;20140;49.356;8.812;2023-07-29T10:07:20;4.30;;;2.27;;
33836;SDS011;20140;49.356;8.812;2023-07-29T10:09:46;1.95;;;1.75;;
33836;SDS011;20140;49.356;8.812;2023-07-29T10:12:13;3.83;;;2.60;;
33836;SDS011;20140;49.356;8.812;2023-07-29T10:14:39;1.60;;;1.50;;
33836;SDS011;20140;49.356;8.812;2023-07-29T10:17:06;3.97;;;1.90;;
33836;SDS011;20140;49.356;8.812;2023-07-29T10:19:32;2.17;;;1.88;;
33836;SDS011;20140;49.356;8.812;2023-07-29T10:22:00;3.30;;;1.47;;
33836;SDS011;20140;49.356;8.812;2023-07-29T10:24:32;2.65;;;1.48;;
33836;SDS011;20140;49.356;8.812;2023-07-29T10:26:59;4.32;;;1.95;;
33836;SDS011;20140;49.356;8.812;2023-07-29T10:29:32;2.20;;;1.80;;
33836;SDS011;20140;49.356;8.812;2023-07-29T10:32:04;1.95;;;1.75;;
33836;SDS011;20140;49.356;8.812;2023-07-29T10:34:31;2.10;;;1.70;;
33836;SDS011;20140;49.356;8.812;2023-07-29T10:36:58;3.47;;;2.00;;
33836;SDS011;20140;49.356;8.812;2023-07-29T10:39:24;1.93;;;1.73;;
33836;SDS011;20140;49.356;8.812;2023-07-29T10:41:54;2.90;;;1.77;;
33836;SDS011;20140;49.356;8.812;2023-07-29T10:47:18;3.25;;;2.20;;
33836;SDS011;20140;49.356;8.812;2023-07-29T10:49:46;1.98;;;1.88;;
33836;SDS011;20140;49.356;8.812;2023-07-29T10:52:15;2.77;;;1.90;;
33836;SDS011;20140;49.356;8.812;2023-07-29T10:54:42;1.80;;;1.70;;
33836;SDS011;20140;49.356;8.812;2023-07-29T10:57:12;4.40;;;2.30;;
33836;SDS011;20140;49.356;8.812;2023-07-29T10:59:39;2.58;;;1.75;;
33836;SDS011;20140;49.356;8.812;2023-07-29T11:02:11;2.50;;;1.80;;
33836;SDS011;20140;49.356;8.812;2023-07-29T11:04:50;2.20;;;2.00;;
33836;SDS011;20140;49.356;8.812;2023-07-29T11:15:03;4.63;;;2.15;;
33836;SDS011;20140;49.356;8.812;2023-07-29T11:17:30;2.50;;;1.70;;
33836;SDS011;20140;49.356;8.812;2023-07-29T11:20:00;1.70;;;1.50;;
33836;SDS011;20140;49.356;8.812;2023-07-29T11:22:26;2.55;;;1.60;;
33836;SDS011;20140;49.356;8.812;2023-07-29T11:24:52;2.13;;;1.50;;
33836;SDS011;20140;49.356;8.812;2023-07-29T11:27:19;4.00;;;1.87;;
33836;SDS011;20140;49.356;8.812;2023-07-29T11:29:44;2.83;;;1.45;;
33836;SDS011;20140;49.356;8.812;2023-07-29T11:32:10;2.03;;;1.40;;
33836;SDS011;20140;49.356;8.812;2023-07-29T11:34:35;1.58;;;1.48;;
33836;SDS011;20140;49.356;8.812;2023-07-29T11:37:01;2.23;;;1.50;;
33836;SDS011;20140;49.356;8.812;2023-07-29T11:39:26;4.65;;;1.35;;
33836;SDS011;20140;49.356;8.812;2023-07-29T11:41:52;1.33;;;1.23;;
33836;SDS011;20140;49.356;8.812;2023-07-29T11:44:18;1.20;;;1.10;;
33836;SDS011;20140;49.356;8.812;2023-07-29T11:46:43;2.95;;;1.50;;
33836;SDS011;20140;49.356;8.812;2023-07-29T11:49:09;1.73;;;1.30;;
33836;SDS011;20140;49.356;8.812;2023-07-29T11:51:36;2.57;;;1.30;;
33836;SDS011;20140;49.356;8.812;2023-07-29T11:54:02;1.30;;;1.20;;
33836;SDS011;20140;49.356;8.812;2023-07-29T11:56:27;1.08;;;0.98;;
33836;SDS011;20140;49.356;8.812;2023-07-29T11:58:55;1.52;;;1.42;;
33836;SDS011;20140;49.356;8.812;2023-07-29T12:01:20;1.40;;;1.30;;
33836;SDS011;20140;49.356;8.812;2023-07-29T12:03:47;1.40;;;0.93;;
33836;SDS011;20140;49.356;8.812;2023-07-29T12:06:13;1.45;;;1.00;;
33836;SDS011;20140;49.356;8.812;2023-07-29T12:08:39;1.70;;;1.30;;
33836;SDS011;20140;49.356;8.812;2023-07-29T12:11:05;1.58;;;1.27;;
33836;SDS011;20140;49.356;8.812;2023-07-29T12:13:31;3.22;;;1.38;;
33836;SDS011;20140;49.356;8.812;2023-07-29T12:16:03;1.38;;;1.27;;
33836;SDS011;20140;49.356;8.812;2023-07-29T12:18:29;2.43;;;1.27;;
33836;SDS011;20140;49.356;8.812;2023-07-29T12:20:56;2.95;;;1.65;;
33836;SDS011;20140;49.356;8.812;2023-07-29T12:23:24;2.00;;;1.40;;
33836;SDS011;20140;49.356;8.812;2023-07-29T12:25:51;3.00;;;1.52;;
33836;SDS011;20140;49.356;8.812;2023-07-29T12:28:22;1.60;;;1.40;;
33836;SDS011;20140;49.356;8.812;2023-07-29T12:30:47;1.60;;;1.00;;
33836;SDS011;20140;49.356;8.812;2023-07-29T12:33:29;1.83;;;1.45;;
33836;SDS011;20140;49.356;8.812;2023-07-29T12:36:04;1.88;;;1.77;;
33836;SDS011;20140;49.356;8.812;2023-07-29T12:38:30;1.70;;;1.60;;
33836;SDS011;20140;49.356;8.812;2023-07-29T12:40:55;2.43;;;1.20;;
33836;SDS011;20140;49.356;8.812;2023-07-29T12:43:21;2.30;;;1.33;;
33836;SDS011;20140;49.356;8.812;2023-07-29T12:45:50;1.33;;;1.02;;
33836;SDS011;20140;49.356;8.812;2023-07-29T12:48:16;1.67;;;1.25;;
33836;SDS011;20140;49.356;8.812;2023-07-29T12:50:42;1.23;;;1.13;;
33836;SDS011;20140;49.356;8.812;2023-07-29T12:53:08;1.90;;;1.20;;
33836;SDS011;20140;49.356;8.812;2023-07-29T12:55:36;1.93;;;1.40;;
33836;SDS011;20140;49.356;8.812;2023-07-29T12:58:02;2.60;;;1.30;;
33836;SDS011;20140;49.356;8.812;2023-07-29T13:00:28;1.63;;;1.40;;
33836;SDS011;20140;49.356;8.812;2023-07-29T13:02:54;1.95;;;1.27;;
33836;SDS011;20140;49.356;8.812;2023-07-29T13:05:20;1.77;;;1.33;;
33836;SDS011;20140;49.356;8.812;2023-07-29T13:07:45;2.30;;;1.33;;
33836;SDS011;20140;49.356;8.812;2023-07-29T13:10:11;2.22;;;1.35;;
33836;SDS011;20140;49.356;8.812;2023-07-29T13:12:38;1.98;;;1.20;;
33836;SDS011;20140;49.356;8.812;2023-07-29T13:15:04;2.03;;;1.20;;
33836;SDS011;20140;49.356;8.812;2023-07-29T13:17:30;1.40;;;1.30;;
33836;SDS011;20140;49.356;8.812;2023-07-29T13:19:56;2.00;;;1.30;;
33836;SDS011;20140;49.356;8.812;2023-07-29T13:22:21;1.97;;;1.60;;
33836;SDS011;20140;49.356;8.812;2023-07-29T13:24:47;2.90;;;1.80;;
33836;SDS011;20140;49.356;8.812;2023-07-29T13:27:12;2.20;;;1.60;;
33836;SDS011;20140;49.356;8.812;2023-07-29T13:29:39;1.83;;;1.73;;
33836;SDS011;20140;49.356;8.812;2023-07-29T13:32:05;3.00;;;1.77;;
33836;SDS011;20140;49.356;8.812;2023-07-29T13:34:31;8.60;;;1.92;;
33836;SDS011;20140;49.356;8.812;2023-07-29T13:36:57;1.70;;;1.60;;
33836;SDS011;20140;49.356;8.812;2023-07-29T13:39:22;1.80;;;1.52;;
33836;SDS011;20140;49.356;8.812;2023-07-29T13:41:48;2.67;;;1.63;;
33836;SDS011;20140;49.356;8.812;2023-07-29T13:44:13;1.80;;;1.30;;
33836;SDS011;20140;49.356;8.812;2023-07-29T13:46:39;1.73;;;1.63;;
33836;SDS011;20140;49.356;8.812;2023-07-29T13:49:04;3.40;;;1.60;;
33836;SDS011;20140;49.356;8.812;2023-07-29T13:51:30;4.20;;;1.70;;
33836;SDS011;20140;49.356;8.812;2023-07-29T13:53:55;2.23;;;1.80;;
33836;SDS011;20140;49.356;8.812;2023-07-29T13:56:21;2.13;;;1.40;;
33836;SDS011;20140;49.356;8.812;2023-07-29T13:58:47;2.00;;;1.90;;
33836;SDS011;20140;49.356;8.812;2023-07-29T14:01:12;2.53;;;1.83;;
33836;SDS011;20140;49.356;8.812;2023-07-29T14:03:38;3.28;;;1.20;;
33836;SDS011;20140;49.356;8.812;2023-07-29T14:06:04;1.60;;;1.43;;
33836;SDS011;20140;49.356;8.812;2023-07-29T14:08:29;3.77;;;1.33;;
33836;SDS011;20140;49.356;8.812;2023-07-29T14:10:55;1.60;;;1.50;;
33836;SDS011;20140;49.356;8.812;2023-07-29T14:13:20;3.20;;;1.70;;
33836;SDS011;20140;49.356;8.812;2023-07-29T14:15:46;1.50;;;1.40;;
33836;SDS011;20140;49.356;8.812;2023-07-29T14:18:11;2.60;;;1.42;;
33836;SDS011;20140;49.356;8.812;2023-07-29T14:20:37;2.33;;;1.40;;
33836;SDS011;20140;49.356;8.812;2023-07-29T14:23:02;3.63;;;1.47;;
33836;SDS011;20140;49.356;8.812;2023-07-29T14:25:28;1.60;;;1.40;;
33836;SDS011;20140;49.356;8.812;2023-07-29T14:27:54;1.83;;;1.73;;
33836;SDS011;20140;49.356;8.812;2023-07-29T14:30:20;1.88;;;1.67;;
33836;SDS011;20140;49.356;8.812;2023-07-29T14:32:45;2.33;;;1.57;;
33836;SDS011;20140;49.356;8.812;2023-07-29T14:35:11;1.53;;;1.30;;
33836;SDS011;20140;49.356;8.812;2023-07-29T14:37:37;2.72;;;2.13;;
33836;SDS011;20140;49.356;8.812;2023-07-29T14:40:03;4.10;;;1.70;;
33836;SDS011;20140;49.356;8.812;2023-07-29T14:42:29;3.88;;;1.83;;
33836;SDS011;20140;49.356;8.812;2023-07-29T14:44:55;1.50;;;1.40;;
33836;SDS011;20140;49.356;8.812;2023-07-29T14:47:20;2.38;;;1.70;;
33836;SDS011;20140;49.356;8.812;2023-07-29T14:49:46;1.88;;;1.40;;
33836;SDS011;20140;49.356;8.812;2023-07-29T14:52:11;2.40;;;1.50;;
33836;SDS011;20140;49.356;8.812;2023-07-29T14:54:37;1.70;;;1.60;;
33836;SDS011;20140;49.356;8.812;2023-07-29T14:57:04;1.20;;;1.10;;
33836;SDS011;20140;49.356;8.812;2023-07-29T14:59:31;2.67;;;1.58;;
33836;SDS011;20140;49.356;8.812;2023-07-29T15:01:56;1.60;;;1.50;;
33836;SDS011;20140;49.356;8.812;2023-07-29T15:04:22;2.30;;;2.10;;